Terminal Aerodrome Forecast
Issued by NWS Twin Cities, MN

Home | Current Version | Previous Version | Graphics & Text | Print | Product List | Glossary On
Versions: 1 2 3 4 5 6 7 8 9 10 11 12 13 14 15 16 17
000
FTUS43 KMPX 221720
TAFEAU
TAF
KEAU 221720Z 2218/2318 03014G22KT 1/2SM SN BLSN VV006
      TEMPO 2218/2222 1/4SM +SN BLSN VV002
     FM222200 02016G22KT 1/2SM SNPL BLSN VV004
     FM230000 02014G23KT 1SM -SN OVC008
     FM230300 01014G23KT 2SM -SN OVC010
     FM230600 01012KT 6SM -SN BLSN OVC012
     FM230900 36011KT P6SM OVC015
     FM231500 33010KT P6SM OVC015=

USA.gov is the U.S. government's official web portal to all federal, state and local government web resources and services.